This is the latest recevied weather packets stored in our database for station/object SM0PQB-13. If no packets are shown the sender has not sent any weather packets the latest 10 day(s).
| Time | Temp. | Humidity | Pressure | Rain* | Wind** | Luminosity | Snow |
|---|---|---|---|---|---|---|---|
| 1777888752 | 23.33° C | 38% | 1001.2 hPa | - | - | - | - |
| 1777888152 | 23.33° C | 36% | 1001.2 hPa | - | - | - | - |
| 1777887552 | 23.33° C | 36% | 1001.1 hPa | - | - | - | - |
| 1777886952 | 23.33° C | 37% | 1001.1 hPa | - | - | - | - |
| 1777886352 | 22.78° C | 38% | 1001.2 hPa | - | - | - | - |
| 1777885753 | 22.78° C | 38% | 1001.2 hPa | - | - | - | - |
| 1777885152 | 22.78° C | 38% | 1001.5 hPa | - | - | - | - |
| 1777884554 | 22.22° C | 39% | 1001.6 hPa | - | - | - | - |
| 1777883952 | 22.78° C | 38% | 1001.5 hPa | - | - | - | - |
| 1777883352 | 22.22° C | 38% | 1001.4 hPa | - | - | - | - |
| 1777882752 | 22.22° C | 39% | 1001.3 hPa | - | - | - | - |
| 1777882152 | 21.67° C | 39% | 1000.7 hPa | - | - | - | - |
| 1777881552 | 22.22° C | 39% | 1001.3 hPa | - | - | - | - |
| 1777880952 | 22.22° C | 39% | 1001.5 hPa | - | - | - | - |
| 1777880352 | 21.67° C | 39% | 1001.5 hPa | - | - | - | - |
| 1777879752 | 22.22° C | 39% | 1001.5 hPa | - | - | - | - |
| 1777879152 | 21.11° C | 39% | 1001 hPa | - | - | - | - |
| 1777878552 | 21.11° C | 39% | 1001.7 hPa | - | - | - | - |
| 1777877952 | 21.11° C | 39% | 1001.9 hPa | - | - | - | - |
| 1777877352 | 21.11° C | 40% | 1002 hPa | - | - | - | - |
| 1777876752 | 21.11° C | 39% | 1002.2 hPa | - | - | - | - |
| 1777876153 | 21.11° C | 40% | 1002.4 hPa | - | - | - | - |
| 1777875552 | 21.11° C | 40% | 1002.5 hPa | - | - | - | - |
| 1777874952 | 20.56° C | 40% | 1002.4 hPa | - | - | - | - |
| 1777874352 | 21.11° C | 40% | 1002.7 hPa | - | - | - | - |
* Rain since midnight (hover to see other rain measurements)
** Current wind speed in m/s (hover to see current wind gust speed)